sensor_id;sensor_type;location;lat;lon;timestamp;P1;durP1;ratioP1;P2;durP2;ratioP2
47335;SDS011;33068;51.990;5.926;2023-01-26T00:00:49;199.55;;;44.13;;
47335;SDS011;33068;51.990;5.926;2023-01-26T00:03:16;189.32;;;42.55;;
47335;SDS011;33068;51.990;5.926;2023-01-26T00:05:43;189.52;;;44.35;;
47335;SDS011;33068;51.990;5.926;2023-01-26T00:08:11;180.75;;;43.72;;
47335;SDS011;33068;51.990;5.926;2023-01-26T00:10:40;211.85;;;42.53;;
47335;SDS011;33068;51.990;5.926;2023-01-26T00:13:15;195.40;;;41.15;;
47335;SDS011;33068;51.990;5.926;2023-01-26T00:15:43;167.27;;;40.95;;
47335;SDS011;33068;51.990;5.926;2023-01-26T00:18:10;162.68;;;39.45;;
47335;SDS011;33068;51.990;5.926;2023-01-26T00:20:37;191.45;;;44.03;;
47335;SDS011;33068;51.990;5.926;2023-01-26T00:23:04;196.82;;;41.75;;
47335;SDS011;33068;51.990;5.926;2023-01-26T00:25:32;182.43;;;40.40;;
47335;SDS011;33068;51.990;5.926;2023-01-26T00:28:00;197.32;;;43.38;;
47335;SDS011;33068;51.990;5.926;2023-01-26T00:30:28;174.68;;;40.50;;
47335;SDS011;33068;51.990;5.926;2023-01-26T00:32:56;177.10;;;39.22;;
47335;SDS011;33068;51.990;5.926;2023-01-26T00:35:23;164.20;;;38.28;;
47335;SDS011;33068;51.990;5.926;2023-01-26T00:37:50;162.13;;;39.78;;
47335;SDS011;33068;51.990;5.926;2023-01-26T00:40:19;166.85;;;38.67;;
47335;SDS011;33068;51.990;5.926;2023-01-26T00:42:46;182.23;;;42.15;;
47335;SDS011;33068;51.990;5.926;2023-01-26T00:45:14;158.13;;;38.20;;
47335;SDS011;33068;51.990;5.926;2023-01-26T00:47:43;167.73;;;40.58;;
47335;SDS011;33068;51.990;5.926;2023-01-26T00:50:10;166.23;;;38.35;;
47335;SDS011;33068;51.990;5.926;2023-01-26T00:52:37;160.40;;;39.58;;
47335;SDS011;33068;51.990;5.926;2023-01-26T00:55:05;156.50;;;39.08;;
47335;SDS011;33068;51.990;5.926;2023-01-26T00:57:32;178.75;;;39.50;;
47335;SDS011;33068;51.990;5.926;2023-01-26T00:59:59;173.45;;;40.97;;
47335;SDS011;33068;51.990;5.926;2023-01-26T01:02:28;158.90;;;36.97;;
47335;SDS011;33068;51.990;5.926;2023-01-26T01:04:55;146.82;;;37.25;;
47335;SDS011;33068;51.990;5.926;2023-01-26T01:07:24;158.20;;;39.03;;
47335;SDS011;33068;51.990;5.926;2023-01-26T01:09:51;144.02;;;37.63;;
47335;SDS011;33068;51.990;5.926;2023-01-26T01:12:18;152.82;;;36.65;;
47335;SDS011;33068;51.990;5.926;2023-01-26T01:14:46;156.95;;;36.10;;
47335;SDS011;33068;51.990;5.926;2023-01-26T01:17:13;174.48;;;38.58;;
47335;SDS011;33068;51.990;5.926;2023-01-26T01:19:42;163.80;;;36.63;;
47335;SDS011;33068;51.990;5.926;2023-01-26T01:22:09;178.43;;;37.67;;
47335;SDS011;33068;51.990;5.926;2023-01-26T01:24:36;158.98;;;37.13;;
47335;SDS011;33068;51.990;5.926;2023-01-26T01:27:03;161.38;;;36.67;;
47335;SDS011;33068;51.990;5.926;2023-01-26T01:29:30;157.55;;;36.83;;
47335;SDS011;33068;51.990;5.926;2023-01-26T01:31:57;158.35;;;39.22;;
47335;SDS011;33068;51.990;5.926;2023-01-26T01:34:26;150.55;;;35.45;;
47335;SDS011;33068;51.990;5.926;2023-01-26T01:36:55;157.20;;;35.50;;
47335;SDS011;33068;51.990;5.926;2023-01-26T01:39:22;156.07;;;36.25;;
47335;SDS011;33068;51.990;5.926;2023-01-26T01:41:49;131.80;;;33.78;;
47335;SDS011;33068;51.990;5.926;2023-01-26T01:44:17;139.98;;;35.05;;
47335;SDS011;33068;51.990;5.926;2023-01-26T01:46:46;153.43;;;36.78;;
47335;SDS011;33068;51.990;5.926;2023-01-26T01:49:18;132.18;;;34.85;;
47335;SDS011;33068;51.990;5.926;2023-01-26T01:51:49;128.95;;;33.55;;
47335;SDS011;33068;51.990;5.926;2023-01-26T01:54:21;161.65;;;36.72;;
47335;SDS011;33068;51.990;5.926;2023-01-26T01:56:55;153.10;;;35.03;;
47335;SDS011;33068;51.990;5.926;2023-01-26T01:59:26;149.10;;;36.28;;
47335;SDS011;33068;51.990;5.926;2023-01-26T02:01:54;149.75;;;37.65;;
47335;SDS011;33068;51.990;5.926;2023-01-26T02:04:22;142.80;;;34.53;;
47335;SDS011;33068;51.990;5.926;2023-01-26T02:06:51;138.48;;;35.80;;
47335;SDS011;33068;51.990;5.926;2023-01-26T02:09:24;149.93;;;35.45;;
47335;SDS011;33068;51.990;5.926;2023-01-26T02:12:13;139.38;;;33.63;;
47335;SDS011;33068;51.990;5.926;2023-01-26T02:14:43;134.15;;;33.97;;
47335;SDS011;33068;51.990;5.926;2023-01-26T02:17:13;138.38;;;33.92;;
47335;SDS011;33068;51.990;5.926;2023-01-26T02:19:44;158.07;;;36.05;;
47335;SDS011;33068;51.990;5.926;2023-01-26T02:22:20;147.00;;;33.80;;
47335;SDS011;33068;51.990;5.926;2023-01-26T02:25:00;130.93;;;32.45;;
47335;SDS011;33068;51.990;5.926;2023-01-26T02:27:34;124.72;;;31.20;;
47335;SDS011;33068;51.990;5.926;2023-01-26T02:30:03;127.03;;;31.55;;
47335;SDS011;33068;51.990;5.926;2023-01-26T02:32:32;112.35;;;30.25;;
47335;SDS011;33068;51.990;5.926;2023-01-26T02:34:59;133.43;;;30.60;;
47335;SDS011;33068;51.990;5.926;2023-01-26T02:37:30;118.63;;;30.25;;
47335;SDS011;33068;51.990;5.926;2023-01-26T02:39:58;116.30;;;29.13;;
47335;SDS011;33068;51.990;5.926;2023-01-26T02:42:30;109.90;;;28.27;;
47335;SDS011;33068;51.990;5.926;2023-01-26T02:45:04;120.10;;;29.35;;
47335;SDS011;33068;51.990;5.926;2023-01-26T02:47:33;107.25;;;29.67;;
47335;SDS011;33068;51.990;5.926;2023-01-26T02:50:03;113.55;;;29.60;;
47335;SDS011;33068;51.990;5.926;2023-01-26T02:52:29;126.63;;;29.13;;
47335;SDS011;33068;51.990;5.926;2023-01-26T02:55:01;109.90;;;29.60;;
47335;SDS011;33068;51.990;5.926;2023-01-26T02:57:46;114.13;;;28.83;;
47335;SDS011;33068;51.990;5.926;2023-01-26T03:00:16;107.45;;;28.67;;
47335;SDS011;33068;51.990;5.926;2023-01-26T03:02:46;109.28;;;29.13;;
47335;SDS011;33068;51.990;5.926;2023-01-26T03:05:16;105.90;;;27.38;;
47335;SDS011;33068;51.990;5.926;2023-01-26T03:07:43;115.50;;;28.45;;
47335;SDS011;33068;51.990;5.926;2023-01-26T03:10:11;97.55;;;28.25;;
47335;SDS011;33068;51.990;5.926;2023-01-26T03:12:40;107.28;;;27.40;;
47335;SDS011;33068;51.990;5.926;2023-01-26T03:15:08;107.47;;;28.20;;
47335;SDS011;33068;51.990;5.926;2023-01-26T03:18:01;103.78;;;28.08;;
47335;SDS011;33068;51.990;5.926;2023-01-26T03:20:55;106.85;;;29.27;;
47335;SDS011;33068;51.990;5.926;2023-01-26T03:23:42;116.30;;;30.15;;
47335;SDS011;33068;51.990;5.926;2023-01-26T03:26:27;110.90;;;27.80;;
47335;SDS011;33068;51.990;5.926;2023-01-26T03:29:20;106.97;;;26.80;;
47335;SDS011;33068;51.990;5.926;2023-01-26T03:31:48;96.97;;;25.90;;
47335;SDS011;33068;51.990;5.926;2023-01-26T03:34:18;111.85;;;28.40;;
47335;SDS011;33068;51.990;5.926;2023-01-26T03:36:46;116.30;;;29.77;;
47335;SDS011;33068;51.990;5.926;2023-01-26T03:39:15;107.05;;;27.92;;
47335;SDS011;33068;51.990;5.926;2023-01-26T03:41:56;93.72;;;23.73;;
47335;SDS011;33068;51.990;5.926;2023-01-26T03:44:41;90.57;;;25.42;;
47335;SDS011;33068;51.990;5.926;2023-01-26T03:47:26;92.28;;;23.30;;
47335;SDS011;33068;51.990;5.926;2023-01-26T03:50:12;92.05;;;24.80;;
47335;SDS011;33068;51.990;5.926;2023-01-26T03:52:57;83.32;;;22.60;;
47335;SDS011;33068;51.990;5.926;2023-01-26T03:55:41;96.70;;;23.65;;
47335;SDS011;33068;51.990;5.926;2023-01-26T03:58:26;85.72;;;24.20;;
47335;SDS011;33068;51.990;5.926;2023-01-26T04:00:55;82.18;;;22.40;;
47335;SDS011;33068;51.990;5.926;2023-01-26T04:03:22;94.40;;;24.60;;
47335;SDS011;33068;51.990;5.926;2023-01-26T04:06:08;83.18;;;22.85;;
47335;SDS011;33068;51.990;5.926;2023-01-26T04:08:53;80.43;;;21.92;;
47335;SDS011;33068;51.990;5.926;2023-01-26T04:11:20;81.30;;;22.90;;
47335;SDS011;33068;51.990;5.926;2023-01-26T04:13:47;77.20;;;20.50;;
47335;SDS011;33068;51.990;5.926;2023-01-26T04:16:32;72.55;;;20.95;;
47335;SDS011;33068;51.990;5.926;2023-01-26T04:19:17;72.25;;;20.08;;
47335;SDS011;33068;51.990;5.926;2023-01-26T04:22:03;67.88;;;19.45;;
47335;SDS011;33068;51.990;5.926;2023-01-26T04:24:33;72.88;;;20.65;;
47335;SDS011;33068;51.990;5.926;2023-01-26T04:27:00;65.22;;;20.40;;
47335;SDS011;33068;51.990;5.926;2023-01-26T04:29:33;75.18;;;20.70;;
47335;SDS011;33068;51.990;5.926;2023-01-26T04:32:00;69.75;;;19.98;;
47335;SDS011;33068;51.990;5.926;2023-01-26T04:34:27;72.63;;;21.08;;
47335;SDS011;33068;51.990;5.926;2023-01-26T04:36:54;59.53;;;18.33;;
47335;SDS011;33068;51.990;5.926;2023-01-26T04:39:27;72.45;;;20.08;;
47335;SDS011;33068;51.990;5.926;2023-01-26T04:41:55;67.13;;;20.38;;
47335;SDS011;33068;51.990;5.926;2023-01-26T04:44:22;71.65;;;20.75;;
47335;SDS011;33068;51.990;5.926;2023-01-26T04:46:50;68.00;;;20.45;;
47335;SDS011;33068;51.990;5.926;2023-01-26T04:49:17;75.03;;;20.70;;
47335;SDS011;33068;51.990;5.926;2023-01-26T04:51:44;62.38;;;18.08;;
47335;SDS011;33068;51.990;5.926;2023-01-26T04:54:12;71.40;;;20.88;;
47335;SDS011;33068;51.990;5.926;2023-01-26T04:56:43;66.85;;;20.25;;
47335;SDS011;33068;51.990;5.926;2023-01-26T04:59:11;58.00;;;19.92;;
47335;SDS011;33068;51.990;5.926;2023-01-26T05:01:40;67.53;;;19.70;;
47335;SDS011;33068;51.990;5.926;2023-01-26T05:04:07;67.22;;;19.60;;
47335;SDS011;33068;51.990;5.926;2023-01-26T05:06:39;76.65;;;21.20;;
47335;SDS011;33068;51.990;5.926;2023-01-26T05:09:07;76.20;;;21.77;;
47335;SDS011;33068;51.990;5.926;2023-01-26T05:11:36;70.07;;;21.95;;
47335;SDS011;33068;51.990;5.926;2023-01-26T05:16:53;75.28;;;19.27;;
47335;SDS011;33068;51.990;5.926;2023-01-26T05:19:24;69.80;;;21.33;;
47335;SDS011;33068;51.990;5.926;2023-01-26T05:22:14;58.95;;;18.70;;
47335;SDS011;33068;51.990;5.926;2023-01-26T05:25:02;61.05;;;20.38;;
47335;SDS011;33068;51.990;5.926;2023-01-26T05:27:37;63.72;;;18.33;;
47335;SDS011;33068;51.990;5.926;2023-01-26T05:30:08;65.85;;;19.52;;
47335;SDS011;33068;51.990;5.926;2023-01-26T05:32:36;60.60;;;19.27;;
47335;SDS011;33068;51.990;5.926;2023-01-26T05:35:04;56.40;;;17.83;;
47335;SDS011;33068;51.990;5.926;2023-01-26T05:37:32;59.38;;;19.60;;
47335;SDS011;33068;51.990;5.926;2023-01-26T05:40:00;61.53;;;18.10;;
47335;SDS011;33068;51.990;5.926;2023-01-26T05:42:28;64.32;;;18.77;;
47335;SDS011;33068;51.990;5.926;2023-01-26T05:45:29;58.92;;;17.55;;
47335;SDS011;33068;51.990;5.926;2023-01-26T05:47:59;61.65;;;20.02;;
47335;SDS011;33068;51.990;5.926;2023-01-26T05:50:29;70.90;;;20.17;;
47335;SDS011;33068;51.990;5.926;2023-01-26T05:53:15;51.70;;;16.27;;
47335;SDS011;33068;51.990;5.926;2023-01-26T05:55:42;66.55;;;21.30;;
47335;SDS011;33068;51.990;5.926;2023-01-26T05:58:10;66.85;;;19.23;;
47335;SDS011;33068;51.990;5.926;2023-01-26T06:00:39;55.80;;;18.30;;
47335;SDS011;33068;51.990;5.926;2023-01-26T06:03:13;59.42;;;19.48;;
47335;SDS011;33068;51.990;5.926;2023-01-26T06:05:40;64.03;;;18.88;;
47335;SDS011;33068;51.990;5.926;2023-01-26T06:08:15;65.35;;;18.40;;
47335;SDS011;33068;51.990;5.926;2023-01-26T06:10:58;59.53;;;18.63;;
47335;SDS011;33068;51.990;5.926;2023-01-26T06:13:52;53.25;;;17.92;;
47335;SDS011;33068;51.990;5.926;2023-01-26T06:16:23;58.22;;;18.95;;
47335;SDS011;33068;51.990;5.926;2023-01-26T06:18:50;63.10;;;18.83;;
47335;SDS011;33068;51.990;5.926;2023-01-26T06:21:18;53.40;;;17.63;;
47335;SDS011;33068;51.990;5.926;2023-01-26T06:23:45;53.40;;;17.15;;
47335;SDS011;33068;51.990;5.926;2023-01-26T06:26:12;50.58;;;17.40;;
47335;SDS011;33068;51.990;5.926;2023-01-26T06:28:40;50.58;;;17.20;;
47335;SDS011;33068;51.990;5.926;2023-01-26T06:31:08;53.85;;;17.38;;
47335;SDS011;33068;51.990;5.926;2023-01-26T06:33:38;54.72;;;18.02;;
47335;SDS011;33068;51.990;5.926;2023-01-26T06:36:08;54.13;;;17.77;;
47335;SDS011;33068;51.990;5.926;2023-01-26T06:38:37;59.92;;;17.73;;
47335;SDS011;33068;51.990;5.926;2023-01-26T06:41:06;55.30;;;18.05;;
47335;SDS011;33068;51.990;5.926;2023-01-26T06:43:34;62.28;;;19.15;;
47335;SDS011;33068;51.990;5.926;2023-01-26T06:46:02;60.40;;;18.60;;
47335;SDS011;33068;51.990;5.926;2023-01-26T06:48:31;53.38;;;17.20;;
47335;SDS011;33068;51.990;5.926;2023-01-26T06:51:04;56.10;;;16.75;;
47335;SDS011;33068;51.990;5.926;2023-01-26T06:54:07;48.88;;;15.70;;
47335;SDS011;33068;51.990;5.926;2023-01-26T06:56:56;52.72;;;17.25;;
47335;SDS011;33068;51.990;5.926;2023-01-26T06:59:43;59.28;;;18.25;;
47335;SDS011;33068;51.990;5.926;2023-01-26T07:02:31;55.85;;;18.10;;
47335;SDS011;33068;51.990;5.926;2023-01-26T07:04:58;48.42;;;15.10;;
47335;SDS011;33068;51.990;5.926;2023-01-26T07:07:26;49.20;;;16.27;;
47335;SDS011;33068;51.990;5.926;2023-01-26T07:09:53;62.33;;;16.77;;
47335;SDS011;33068;51.990;5.926;2023-01-26T07:12:20;58.72;;;19.08;;
47335;SDS011;33068;51.990;5.926;2023-01-26T07:14:47;45.75;;;15.40;;
47335;SDS011;33068;51.990;5.926;2023-01-26T07:17:15;54.65;;;17.13;;
47335;SDS011;33068;51.990;5.926;2023-01-26T07:19:42;61.17;;;16.88;;
47335;SDS011;33068;51.990;5.926;2023-01-26T07:22:09;54.75;;;17.27;;
47335;SDS011;33068;51.990;5.926;2023-01-26T07:24:38;53.60;;;17.27;;
47335;SDS011;33068;51.990;5.926;2023-01-26T07:27:05;52.20;;;15.68;;
47335;SDS011;33068;51.990;5.926;2023-01-26T07:29:32;49.60;;;15.75;;
47335;SDS011;33068;51.990;5.926;2023-01-26T07:31:59;55.83;;;16.52;;
47335;SDS011;33068;51.990;5.926;2023-01-26T07:34:26;49.33;;;15.30;;
47335;SDS011;33068;51.990;5.926;2023-01-26T07:36:53;44.55;;;14.93;;
47335;SDS011;33068;51.990;5.926;2023-01-26T07:39:20;56.13;;;16.75;;
47335;SDS011;33068;51.990;5.926;2023-01-26T07:41:49;49.22;;;15.93;;
47335;SDS011;33068;51.990;5.926;2023-01-26T07:44:32;43.30;;;14.52;;
47335;SDS011;33068;51.990;5.926;2023-01-26T07:46:59;57.63;;;16.08;;
47335;SDS011;33068;51.990;5.926;2023-01-26T07:49:26;46.83;;;16.27;;
47335;SDS011;33068;51.990;5.926;2023-01-26T07:51:53;48.15;;;17.02;;
47335;SDS011;33068;51.990;5.926;2023-01-26T07:54:20;54.28;;;16.13;;
47335;SDS011;33068;51.990;5.926;2023-01-26T07:56:51;48.83;;;15.60;;
47335;SDS011;33068;51.990;5.926;2023-01-26T07:59:18;56.70;;;15.93;;
47335;SDS011;33068;51.990;5.926;2023-01-26T08:01:47;52.63;;;15.93;;
47335;SDS011;33068;51.990;5.926;2023-01-26T08:04:14;50.42;;;16.27;;
47335;SDS011;33068;51.990;5.926;2023-01-26T08:06:42;49.65;;;17.02;;
47335;SDS011;33068;51.990;5.926;2023-01-26T08:09:09;49.88;;;17.02;;
47335;SDS011;33068;51.990;5.926;2023-01-26T08:11:36;52.72;;;15.15;;
47335;SDS011;33068;51.990;5.926;2023-01-26T08:14:05;61.83;;;18.38;;
47335;SDS011;33068;51.990;5.926;2023-01-26T08:16:32;67.85;;;17.35;;
47335;SDS011;33068;51.990;5.926;2023-01-26T08:18:59;65.05;;;17.50;;
47335;SDS011;33068;51.990;5.926;2023-01-26T08:21:27;67.95;;;18.27;;
47335;SDS011;33068;51.990;5.926;2023-01-26T08:23:54;59.90;;;18.70;;
47335;SDS011;33068;51.990;5.926;2023-01-26T08:26:25;62.05;;;18.90;;
47335;SDS011;33068;51.990;5.926;2023-01-26T08:28:53;58.42;;;16.95;;
47335;SDS011;33068;51.990;5.926;2023-01-26T08:31:22;72.20;;;18.40;;
47335;SDS011;33068;51.990;5.926;2023-01-26T08:33:49;53.58;;;18.13;;
47335;SDS011;33068;51.990;5.926;2023-01-26T08:36:18;70.00;;;19.20;;
47335;SDS011;33068;51.990;5.926;2023-01-26T08:38:46;61.20;;;17.08;;
47335;SDS011;33068;51.990;5.926;2023-01-26T08:41:13;60.03;;;16.65;;
47335;SDS011;33068;51.990;5.926;2023-01-26T08:43:40;63.47;;;17.60;;
47335;SDS011;33068;51.990;5.926;2023-01-26T08:46:07;63.92;;;18.58;;
47335;SDS011;33068;51.990;5.926;2023-01-26T08:48:35;61.53;;;17.60;;
47335;SDS011;33068;51.990;5.926;2023-01-26T08:51:03;72.07;;;19.02;;
47335;SDS011;33068;51.990;5.926;2023-01-26T08:53:32;67.03;;;17.73;;
47335;SDS011;33068;51.990;5.926;2023-01-26T08:56:01;67.28;;;17.52;;
47335;SDS011;33068;51.990;5.926;2023-01-26T08:58:29;71.30;;;18.85;;
47335;SDS011;33068;51.990;5.926;2023-01-26T09:00:57;72.10;;;17.92;;
47335;SDS011;33068;51.990;5.926;2023-01-26T09:03:25;67.78;;;19.08;;
47335;SDS011;33068;51.990;5.926;2023-01-26T09:05:57;67.65;;;18.80;;
47335;SDS011;33068;51.990;5.926;2023-01-26T09:08:24;70.65;;;17.45;;
47335;SDS011;33068;51.990;5.926;2023-01-26T09:10:52;70.30;;;18.25;;
47335;SDS011;33068;51.990;5.926;2023-01-26T09:13:19;74.00;;;19.25;;
47335;SDS011;33068;51.990;5.926;2023-01-26T09:15:46;75.57;;;19.65;;
47335;SDS011;33068;51.990;5.926;2023-01-26T09:18:13;70.07;;;18.77;;
47335;SDS011;33068;51.990;5.926;2023-01-26T09:20:40;70.57;;;19.25;;
47335;SDS011;33068;51.990;5.926;2023-01-26T09:23:09;74.05;;;19.17;;
47335;SDS011;33068;51.990;5.926;2023-01-26T09:25:37;73.78;;;19.13;;
47335;SDS011;33068;51.990;5.926;2023-01-26T09:28:05;90.85;;;20.92;;
47335;SDS011;33068;51.990;5.926;2023-01-26T09:30:32;67.65;;;18.77;;
47335;SDS011;33068;51.990;5.926;2023-01-26T09:32:59;90.53;;;20.23;;
47335;SDS011;33068;51.990;5.926;2023-01-26T09:35:28;67.35;;;18.95;;
47335;SDS011;33068;51.990;5.926;2023-01-26T09:37:56;78.40;;;20.90;;
47335;SDS011;33068;51.990;5.926;2023-01-26T09:40:25;70.35;;;19.38;;
47335;SDS011;33068;51.990;5.926;2023-01-26T09:43:05;65.72;;;18.73;;
47335;SDS011;33068;51.990;5.926;2023-01-26T09:45:45;71.30;;;17.05;;
47335;SDS011;33068;51.990;5.926;2023-01-26T09:48:21;69.78;;;19.35;;
47335;SDS011;33068;51.990;5.926;2023-01-26T09:50:59;75.50;;;18.13;;
47335;SDS011;33068;51.990;5.926;2023-01-26T09:53:38;75.50;;;19.38;;
47335;SDS011;33068;51.990;5.926;2023-01-26T09:56:16;67.90;;;18.10;;
47335;SDS011;33068;51.990;5.926;2023-01-26T09:58:47;72.35;;;17.45;;
47335;SDS011;33068;51.990;5.926;2023-01-26T10:01:30;74.85;;;18.08;;
47335;SDS011;33068;51.990;5.926;2023-01-26T10:04:24;74.22;;;18.25;;
47335;SDS011;33068;51.990;5.926;2023-01-26T10:07:01;78.38;;;17.10;;
47335;SDS011;33068;51.990;5.926;2023-01-26T10:09:44;65.45;;;17.52;;
47335;SDS011;33068;51.990;5.926;2023-01-26T10:12:15;59.42;;;16.30;;
47335;SDS011;33068;51.990;5.926;2023-01-26T10:14:48;61.92;;;16.30;;
47335;SDS011;33068;51.990;5.926;2023-01-26T10:17:19;56.83;;;14.93;;
47335;SDS011;33068;51.990;5.926;2023-01-26T10:20:00;52.50;;;14.75;;
47335;SDS011;33068;51.990;5.926;2023-01-26T10:22:34;50.33;;;14.80;;
47335;SDS011;33068;51.990;5.926;2023-01-26T10:25:14;58.72;;;15.90;;
47335;SDS011;33068;51.990;5.926;2023-01-26T10:27:56;57.60;;;15.20;;
47335;SDS011;33068;51.990;5.926;2023-01-26T10:30:23;55.40;;;14.30;;
47335;SDS011;33068;51.990;5.926;2023-01-26T10:32:50;51.05;;;13.88;;
47335;SDS011;33068;51.990;5.926;2023-01-26T10:35:20;61.47;;;14.85;;
47335;SDS011;33068;51.990;5.926;2023-01-26T10:37:47;43.97;;;12.90;;
47335;SDS011;33068;51.990;5.926;2023-01-26T10:40:18;46.80;;;14.57;;
47335;SDS011;33068;51.990;5.926;2023-01-26T10:42:53;45.88;;;12.63;;
47335;SDS011;33068;51.990;5.926;2023-01-26T10:45:24;52.58;;;13.65;;
47335;SDS011;33068;51.990;5.926;2023-01-26T10:48:08;46.67;;;12.77;;
47335;SDS011;33068;51.990;5.926;2023-01-26T10:50:43;42.80;;;12.63;;
47335;SDS011;33068;51.990;5.926;2023-01-26T10:53:13;54.28;;;13.82;;
47335;SDS011;33068;51.990;5.926;2023-01-26T10:55:43;45.35;;;13.25;;
47335;SDS011;33068;51.990;5.926;2023-01-26T10:58:34;44.85;;;12.82;;
47335;SDS011;33068;51.990;5.926;2023-01-26T11:01:07;44.85;;;14.15;;
47335;SDS011;33068;51.990;5.926;2023-01-26T11:03:37;42.60;;;13.23;;
47335;SDS011;33068;51.990;5.926;2023-01-26T11:06:12;38.38;;;12.43;;
47335;SDS011;33068;51.990;5.926;2023-01-26T11:08:46;36.90;;;12.95;;
47335;SDS011;33068;51.990;5.926;2023-01-26T11:19:30;33.33;;;9.68;;
47335;SDS011;33068;51.990;5.926;2023-01-26T11:22:44;31.90;;;10.20;;
47335;SDS011;33068;51.990;5.926;2023-01-26T11:25:20;25.90;;;8.82;;
47335;SDS011;33068;51.990;5.926;2023-01-26T11:28:34;25.48;;;9.88;;
47335;SDS011;33068;51.990;5.926;2023-01-26T11:31:14;32.25;;;9.35;;
47335;SDS011;33068;51.990;5.926;2023-01-26T11:33:59;38.05;;;9.38;;
47335;SDS011;33068;51.990;5.926;2023-01-26T11:40:56;21.40;;;6.85;;
47335;SDS011;33068;51.990;5.926;2023-01-26T11:43:59;27.10;;;7.53;;
47335;SDS011;33068;51.990;5.926;2023-01-26T11:48:23;27.52;;;7.80;;
47335;SDS011;33068;51.990;5.926;2023-01-26T12:16:12;19.27;;;4.38;;
47335;SDS011;33068;51.990;5.926;2023-01-26T12:18:45;27.17;;;5.27;;
47335;SDS011;33068;51.990;5.926;2023-01-26T12:21:16;22.05;;;6.13;;
47335;SDS011;33068;51.990;5.926;2023-01-26T12:23:46;23.15;;;3.92;;
47335;SDS011;33068;51.990;5.926;2023-01-26T12:26:22;17.77;;;4.50;;
47335;SDS011;33068;51.990;5.926;2023-01-26T12:28:55;24.40;;;3.60;;
47335;SDS011;33068;51.990;5.926;2023-01-26T12:31:53;34.88;;;4.47;;
47335;SDS011;33068;51.990;5.926;2023-01-26T12:34:26;26.13;;;3.85;;
47335;SDS011;33068;51.990;5.926;2023-01-26T12:36:59;25.10;;;3.97;;
47335;SDS011;33068;51.990;5.926;2023-01-26T12:39:40;34.38;;;3.25;;
47335;SDS011;33068;51.990;5.926;2023-01-26T12:42:16;35.72;;;3.20;;
47335;SDS011;33068;51.990;5.926;2023-01-26T12:44:52;25.00;;;3.33;;
47335;SDS011;33068;51.990;5.926;2023-01-26T12:47:23;26.33;;;3.30;;
47335;SDS011;33068;51.990;5.926;2023-01-26T12:49:59;23.10;;;3.03;;
47335;SDS011;33068;51.990;5.926;2023-01-26T12:52:32;35.58;;;3.90;;
47335;SDS011;33068;51.990;5.926;2023-01-26T12:55:06;22.95;;;2.70;;
47335;SDS011;33068;51.990;5.926;2023-01-26T12:57:42;18.92;;;2.17;;
47335;SDS011;33068;51.990;5.926;2023-01-26T13:00:17;22.40;;;2.58;;
47335;SDS011;33068;51.990;5.926;2023-01-26T13:02:49;20.27;;;2.38;;
47335;SDS011;33068;51.990;5.926;2023-01-26T13:05:23;23.77;;;2.30;;
47335;SDS011;33068;51.990;5.926;2023-01-26T13:07:52;16.52;;;2.00;;
47335;SDS011;33068;51.990;5.926;2023-01-26T13:10:21;23.10;;;2.00;;
47335;SDS011;33068;51.990;5.926;2023-01-26T13:13:25;21.13;;;1.98;;
47335;SDS011;33068;51.990;5.926;2023-01-26T13:19:09;13.10;;;1.77;;
47335;SDS011;33068;51.990;5.926;2023-01-26T13:25:12;16.48;;;1.52;;
47335;SDS011;33068;51.990;5.926;2023-01-26T13:27:43;21.45;;;2.50;;
47335;SDS011;33068;51.990;5.926;2023-01-26T13:33:20;24.45;;;1.85;;
47335;SDS011;33068;51.990;5.926;2023-01-26T13:35:50;20.48;;;2.20;;
47335;SDS011;33068;51.990;5.926;2023-01-26T13:38:23;23.58;;;2.17;;
47335;SDS011;33068;51.990;5.926;2023-01-26T13:40:58;15.00;;;1.98;;
47335;SDS011;33068;51.990;5.926;2023-01-26T13:43:27;18.90;;;2.55;;
47335;SDS011;33068;51.990;5.926;2023-01-26T13:46:09;15.68;;;1.80;;
47335;SDS011;33068;51.990;5.926;2023-01-26T13:48:41;18.65;;;1.45;;
47335;SDS011;33068;51.990;5.926;2023-01-26T13:51:13;12.50;;;1.70;;
47335;SDS011;33068;51.990;5.926;2023-01-26T13:53:43;20.58;;;2.05;;
47335;SDS011;33068;51.990;5.926;2023-01-26T13:56:19;20.35;;;2.25;;
47335;SDS011;33068;51.990;5.926;2023-01-26T13:58:48;19.05;;;1.80;;
47335;SDS011;33068;51.990;5.926;2023-01-26T14:01:16;18.52;;;2.17;;
47335;SDS011;33068;51.990;5.926;2023-01-26T14:03:43;15.27;;;1.98;;
47335;SDS011;33068;51.990;5.926;2023-01-26T14:06:16;12.75;;;1.58;;
47335;SDS011;33068;51.990;5.926;2023-01-26T14:08:48;9.38;;;2.50;;
47335;SDS011;33068;51.990;5.926;2023-01-26T14:11:18;17.13;;;1.88;;
47335;SDS011;33068;51.990;5.926;2023-01-26T14:13:49;14.82;;;1.48;;
47335;SDS011;33068;51.990;5.926;2023-01-26T14:16:21;11.38;;;1.33;;
47335;SDS011;33068;51.990;5.926;2023-01-26T14:19:02;11.68;;;2.15;;
47335;SDS011;33068;51.990;5.926;2023-01-26T14:21:32;19.40;;;3.08;;
47335;SDS011;33068;51.990;5.926;2023-01-26T14:24:14;17.15;;;2.35;;
47335;SDS011;33068;51.990;5.926;2023-01-26T14:26:42;9.65;;;0.90;;
47335;SDS011;33068;51.990;5.926;2023-01-26T14:29:12;7.53;;;1.00;;
47335;SDS011;33068;51.990;5.926;2023-01-26T14:31:48;13.90;;;1.30;;
47335;SDS011;33068;51.990;5.926;2023-01-26T14:34:20;15.02;;;1.10;;
47335;SDS011;33068;51.990;5.926;2023-01-26T14:39:36;14.18;;;1.20;;
47335;SDS011;33068;51.990;5.926;2023-01-26T14:42:04;6.70;;;0.65;;
47335;SDS011;33068;51.990;5.926;2023-01-26T14:44:32;7.45;;;0.60;;
47335;SDS011;33068;51.990;5.926;2023-01-26T14:47:00;12.85;;;0.70;;
47335;SDS011;33068;51.990;5.926;2023-01-26T14:49:34;14.18;;;1.25;;
47335;SDS011;33068;51.990;5.926;2023-01-26T14:52:15;12.90;;;1.48;;
47335;SDS011;33068;51.990;5.926;2023-01-26T14:54:48;12.88;;;0.98;;
47335;SDS011;33068;51.990;5.926;2023-01-26T14:57:18;11.05;;;1.15;;
47335;SDS011;33068;51.990;5.926;2023-01-26T14:59:48;6.35;;;0.60;;
47335;SDS011;33068;51.990;5.926;2023-01-26T15:02:18;7.10;;;0.80;;
47335;SDS011;33068;51.990;5.926;2023-01-26T15:04:48;9.15;;;0.68;;
47335;SDS011;33068;51.990;5.926;2023-01-26T15:07:27;9.95;;;0.60;;
47335;SDS011;33068;51.990;5.926;2023-01-26T15:10:02;8.10;;;0.82;;
47335;SDS011;33068;51.990;5.926;2023-01-26T15:12:54;12.82;;;1.02;;
47335;SDS011;33068;51.990;5.926;2023-01-26T15:15:26;12.75;;;0.68;;
47335;SDS011;33068;51.990;5.926;2023-01-26T15:18:02;11.88;;;1.00;;
47335;SDS011;33068;51.990;5.926;2023-01-26T15:20:38;8.93;;;0.63;;
47335;SDS011;33068;51.990;5.926;2023-01-26T15:26:04;6.20;;;0.50;;
47335;SDS011;33068;51.990;5.926;2023-01-26T15:28:32;4.65;;;0.32;;
47335;SDS011;33068;51.990;5.926;2023-01-26T15:30:59;8.95;;;1.15;;
47335;SDS011;33068;51.990;5.926;2023-01-26T15:33:36;6.38;;;0.82;;
47335;SDS011;33068;51.990;5.926;2023-01-26T15:36:25;9.73;;;1.08;;
47335;SDS011;33068;51.990;5.926;2023-01-26T15:38:58;8.20;;;0.65;;
47335;SDS011;33068;51.990;5.926;2023-01-26T15:41:27;10.55;;;0.90;;
47335;SDS011;33068;51.990;5.926;2023-01-26T15:43:55;6.85;;;0.68;;
47335;SDS011;33068;51.990;5.926;2023-01-26T15:46:23;7.97;;;1.15;;
47335;SDS011;33068;51.990;5.926;2023-01-26T15:48:51;11.32;;;0.77;;
47335;SDS011;33068;51.990;5.926;2023-01-26T15:51:20;6.40;;;0.70;;